sensor_id;sensor_type;location;lat;lon;timestamp;pressure;altitude;pressure_sealevel;temperature;humidity
84714;BME280;74938;42.658;23.248;2024-01-15T00:01:59;93413.94;;;-2.61;67.94
84714;BME280;74938;42.658;23.248;2024-01-15T00:04:24;93408.75;;;-2.60;67.42
84714;BME280;74938;42.658;23.248;2024-01-15T00:06:50;93409.13;;;-3.22;71.27
84714;BME280;74938;42.658;23.248;2024-01-15T00:09:15;93410.16;;;-3.44;71.86
84714;BME280;74938;42.658;23.248;2024-01-15T00:11:42;93405.41;;;-2.89;69.50
84714;BME280;74938;42.658;23.248;2024-01-15T00:14:07;93402.72;;;-2.59;69.02
84714;BME280;74938;42.658;23.248;2024-01-15T00:16:33;93400.47;;;-2.52;68.82
84714;BME280;74938;42.658;23.248;2024-01-15T00:18:58;93400.50;;;-2.62;68.25
84714;BME280;74938;42.658;23.248;2024-01-15T00:21:23;93405.81;;;-2.74;69.38
84714;BME280;74938;42.658;23.248;2024-01-15T00:23:49;93396.91;;;-3.07;70.23
84714;BME280;74938;42.658;23.248;2024-01-15T00:26:14;93403.66;;;-3.27;71.40
84714;BME280;74938;42.658;23.248;2024-01-15T00:28:40;93409.81;;;-3.30;71.63
84714;BME280;74938;42.658;23.248;2024-01-15T00:31:06;93401.56;;;-3.12;71.04
84714;BME280;74938;42.658;23.248;2024-01-15T00:33:31;93403.44;;;-2.86;69.71
84714;BME280;74938;42.658;23.248;2024-01-15T00:35:56;93411.53;;;-3.01;70.71
84714;BME280;74938;42.658;23.248;2024-01-15T00:38:22;93407.97;;;-2.79;69.81
84714;BME280;74938;42.658;23.248;2024-01-15T00:40:47;93408.34;;;-2.74;69.57
84714;BME280;74938;42.658;23.248;2024-01-15T00:43:13;93410.06;;;-2.94;70.53
84714;BME280;74938;42.658;23.248;2024-01-15T00:45:38;93408.88;;;-3.19;71.10
84714;BME280;74938;42.658;23.248;2024-01-15T00:48:04;93405.00;;;-2.94;69.60
84714;BME280;74938;42.658;23.248;2024-01-15T00:50:29;93409.53;;;-2.88;69.57
84714;BME280;74938;42.658;23.248;2024-01-15T00:52:55;93401.31;;;-2.81;68.83
84714;BME280;74938;42.658;23.248;2024-01-15T00:55:20;93408.88;;;-2.81;70.05
84714;BME280;74938;42.658;23.248;2024-01-15T00:57:46;93404.31;;;-2.58;68.93
84714;BME280;74938;42.658;23.248;2024-01-15T01:00:11;93404.59;;;-2.51;67.91
84714;BME280;74938;42.658;23.248;2024-01-15T01:02:37;93380.25;;;-2.62;67.03
84714;BME280;74938;42.658;23.248;2024-01-15T01:05:03;93401.31;;;-2.81;68.05
84714;BME280;74938;42.658;23.248;2024-01-15T01:07:28;93391.31;;;-3.11;71.31
84714;BME280;74938;42.658;23.248;2024-01-15T01:09:55;93389.59;;;-3.30;71.03
84714;BME280;74938;42.658;23.248;2024-01-15T01:12:20;93407.78;;;-3.36;71.68
84714;BME280;74938;42.658;23.248;2024-01-15T01:14:45;93399.69;;;-3.20;70.56
84714;BME280;74938;42.658;23.248;2024-01-15T01:17:11;93395.44;;;-2.81;69.66
84714;BME280;74938;42.658;23.248;2024-01-15T01:19:36;93398.88;;;-2.72;69.10
84714;BME280;74938;42.658;23.248;2024-01-15T01:22:01;93395.97;;;-2.77;69.24
84714;BME280;74938;42.658;23.248;2024-01-15T01:24:27;93386.69;;;-2.96;69.05
84714;BME280;74938;42.658;23.248;2024-01-15T01:26:53;93394.06;;;-2.56;68.08
84714;BME280;74938;42.658;23.248;2024-01-15T01:29:18;93376.03;;;-3.00;69.48
84714;BME280;74938;42.658;23.248;2024-01-15T01:31:44;93376.94;;;-2.72;69.31
84714;BME280;74938;42.658;23.248;2024-01-15T01:34:10;93370.19;;;-3.00;69.06
84714;BME280;74938;42.658;23.248;2024-01-15T01:36:36;93375.47;;;-2.65;68.83
84714;BME280;74938;42.658;23.248;2024-01-15T01:39:01;93372.78;;;-2.54;68.38
84714;BME280;74938;42.658;23.248;2024-01-15T01:41:27;93373.00;;;-2.28;66.93
84714;BME280;74938;42.658;23.248;2024-01-15T01:43:52;93370.34;;;-2.36;67.77
84714;BME280;74938;42.658;23.248;2024-01-15T01:46:18;93372.31;;;-2.30;66.66
84714;BME280;74938;42.658;23.248;2024-01-15T01:48:43;93361.50;;;-2.69;68.46
84714;BME280;74938;42.658;23.248;2024-01-15T01:51:09;93366.16;;;-2.64;67.22
84714;BME280;74938;42.658;23.248;2024-01-15T01:53:36;93357.38;;;-2.70;67.84
84714;BME280;74938;42.658;23.248;2024-01-15T01:56:03;93350.47;;;-2.87;69.15
84714;BME280;74938;42.658;23.248;2024-01-15T01:58:29;93363.59;;;-2.55;68.45
84714;BME280;74938;42.658;23.248;2024-01-15T02:00:56;93362.78;;;-2.55;68.14
84714;BME280;74938;42.658;23.248;2024-01-15T02:03:22;93357.94;;;-3.05;69.37
84714;BME280;74938;42.658;23.248;2024-01-15T02:05:48;93351.53;;;-2.90;69.07
84714;BME280;74938;42.658;23.248;2024-01-15T02:08:14;93353.03;;;-2.97;70.28
84714;BME280;74938;42.658;23.248;2024-01-15T02:10:40;93345.56;;;-2.79;69.65
84714;BME280;74938;42.658;23.248;2024-01-15T02:13:05;93347.66;;;-2.74;69.13
84714;BME280;74938;42.658;23.248;2024-01-15T02:15:31;93336.50;;;-2.82;69.14
84714;BME280;74938;42.658;23.248;2024-01-15T02:18:00;93339.28;;;-2.94;69.54
84714;BME280;74938;42.658;23.248;2024-01-15T02:20:27;93331.50;;;-2.54;68.40
84714;BME280;74938;42.658;23.248;2024-01-15T02:22:52;93306.91;;;-2.62;68.69
84714;BME280;74938;42.658;23.248;2024-01-15T02:25:18;93279.25;;;-3.29;70.38
84714;BME280;74938;42.658;23.248;2024-01-15T02:27:44;93289.31;;;-3.20;71.43
84714;BME280;74938;42.658;23.248;2024-01-15T02:30:12;93295.84;;;-3.17;70.37
84714;BME280;74938;42.658;23.248;2024-01-15T02:32:40;93289.03;;;-3.07;69.85
84714;BME280;74938;42.658;23.248;2024-01-15T02:35:06;93306.13;;;-2.72;69.25
84714;BME280;74938;42.658;23.248;2024-01-15T02:37:31;93307.00;;;-2.44;67.32
84714;BME280;74938;42.658;23.248;2024-01-15T02:39:56;93292.75;;;-2.45;68.51
84714;BME280;74938;42.658;23.248;2024-01-15T02:42:22;93304.53;;;-2.63;68.40
84714;BME280;74938;42.658;23.248;2024-01-15T02:44:47;93296.44;;;-2.86;69.57
84714;BME280;74938;42.658;23.248;2024-01-15T02:47:14;93297.03;;;-3.02;70.89
84714;BME280;74938;42.658;23.248;2024-01-15T02:49:39;93291.72;;;-3.18;71.25
84714;BME280;74938;42.658;23.248;2024-01-15T02:52:05;93296.50;;;-3.25;70.96
84714;BME280;74938;42.658;23.248;2024-01-15T02:54:30;93295.28;;;-3.01;70.58
84714;BME280;74938;42.658;23.248;2024-01-15T02:56:55;93295.78;;;-2.78;70.14
84714;BME280;74938;42.658;23.248;2024-01-15T02:59:21;93293.88;;;-2.67;69.12
84714;BME280;74938;42.658;23.248;2024-01-15T03:01:46;93292.63;;;-2.53;69.26
84714;BME280;74938;42.658;23.248;2024-01-15T03:04:12;93301.03;;;-2.53;69.12
84714;BME280;74938;42.658;23.248;2024-01-15T03:06:37;93283.06;;;-2.96;70.84
84714;BME280;74938;42.658;23.248;2024-01-15T03:09:03;93285.75;;;-2.70;70.28
84714;BME280;74938;42.658;23.248;2024-01-15T03:11:28;93289.69;;;-2.95;71.39
84714;BME280;74938;42.658;23.248;2024-01-15T03:13:54;93275.69;;;-2.90;72.05
84714;BME280;74938;42.658;23.248;2024-01-15T03:16:19;93293.47;;;-2.72;71.28
84714;BME280;74938;42.658;23.248;2024-01-15T03:18:45;93273.66;;;-2.39;69.14
84714;BME280;74938;42.658;23.248;2024-01-15T03:21:10;93272.59;;;-2.37;69.95
84714;BME280;74938;42.658;23.248;2024-01-15T03:23:35;93250.75;;;-2.38;68.57
84714;BME280;74938;42.658;23.248;2024-01-15T03:26:01;93256.94;;;-2.50;69.42
84714;BME280;74938;42.658;23.248;2024-01-15T03:28:26;93263.13;;;-2.35;68.77
84714;BME280;74938;42.658;23.248;2024-01-15T03:30:52;93252.34;;;-2.64;70.14
84714;BME280;74938;42.658;23.248;2024-01-15T03:33:17;93270.28;;;-2.95;73.16
84714;BME280;74938;42.658;23.248;2024-01-15T03:35:42;93255.88;;;-2.94;72.39
84714;BME280;74938;42.658;23.248;2024-01-15T03:38:08;93270.88;;;-2.36;69.64
84714;BME280;74938;42.658;23.248;2024-01-15T03:40:33;93266.25;;;-2.14;69.70
84714;BME280;74938;42.658;23.248;2024-01-15T03:42:58;93275.00;;;-2.72;72.50
84714;BME280;74938;42.658;23.248;2024-01-15T03:45:24;93268.75;;;-2.41;70.96
84714;BME280;74938;42.658;23.248;2024-01-15T03:47:49;93258.69;;;-2.23;69.62
84714;BME280;74938;42.658;23.248;2024-01-15T03:50:15;93261.06;;;-2.22;70.25
84714;BME280;74938;42.658;23.248;2024-01-15T03:52:40;93256.78;;;-2.12;70.41
84714;BME280;74938;42.658;23.248;2024-01-15T03:55:06;93251.09;;;-2.23;69.26
84714;BME280;74938;42.658;23.248;2024-01-15T03:57:31;93265.13;;;-2.29;69.56
84714;BME280;74938;42.658;23.248;2024-01-15T03:59:56;93263.97;;;-2.17;69.49
84714;BME280;74938;42.658;23.248;2024-01-15T04:02:22;93253.78;;;-2.07;67.60
84714;BME280;74938;42.658;23.248;2024-01-15T04:04:47;93232.13;;;-2.37;68.40
84714;BME280;74938;42.658;23.248;2024-01-15T04:07:13;93244.56;;;-2.53;68.99
84714;BME280;74938;42.658;23.248;2024-01-15T04:09:38;93240.25;;;-2.70;70.66
84714;BME280;74938;42.658;23.248;2024-01-15T04:12:03;93238.44;;;-2.78;71.12
84714;BME280;74938;42.658;23.248;2024-01-15T04:14:29;93236.72;;;-2.50;69.20
84714;BME280;74938;42.658;23.248;2024-01-15T04:16:54;93234.22;;;-3.06;71.25
84714;BME280;74938;42.658;23.248;2024-01-15T04:19:20;93251.03;;;-3.15;72.23
84714;BME280;74938;42.658;23.248;2024-01-15T04:21:45;93246.72;;;-2.95;72.11
84714;BME280;74938;42.658;23.248;2024-01-15T04:24:10;93239.78;;;-2.84;70.97
84714;BME280;74938;42.658;23.248;2024-01-15T04:26:36;93245.84;;;-2.76;71.05
84714;BME280;74938;42.658;23.248;2024-01-15T04:29:01;93246.28;;;-2.81;71.11
84714;BME280;74938;42.658;23.248;2024-01-15T04:31:26;93247.44;;;-2.75;70.82
84714;BME280;74938;42.658;23.248;2024-01-15T04:33:52;93257.34;;;-2.92;70.69
84714;BME280;74938;42.658;23.248;2024-01-15T04:36:17;93245.19;;;-3.35;73.10
84714;BME280;74938;42.658;23.248;2024-01-15T04:38:43;93245.19;;;-3.35;72.80
84714;BME280;74938;42.658;23.248;2024-01-15T04:41:15;93237.09;;;-3.58;73.76
84714;BME280;74938;42.658;23.248;2024-01-15T04:43:41;93237.25;;;-3.49;74.00
84714;BME280;74938;42.658;23.248;2024-01-15T04:46:06;93237.50;;;-3.62;74.34
84714;BME280;74938;42.658;23.248;2024-01-15T04:48:32;93246.53;;;-3.31;73.66
84714;BME280;74938;42.658;23.248;2024-01-15T04:50:58;93228.59;;;-2.91;72.86
84714;BME280;74938;42.658;23.248;2024-01-15T04:53:23;93213.63;;;-3.02;72.19
84714;BME280;74938;42.658;23.248;2024-01-15T04:55:49;93221.66;;;-2.79;71.88
84714;BME280;74938;42.658;23.248;2024-01-15T04:58:14;93218.28;;;-3.07;72.09
84714;BME280;74938;42.658;23.248;2024-01-15T05:00:39;93204.91;;;-2.80;72.28
84714;BME280;74938;42.658;23.248;2024-01-15T05:03:05;93211.75;;;-3.00;72.60
84714;BME280;74938;42.658;23.248;2024-01-15T05:05:30;93193.84;;;-3.26;73.73
84714;BME280;74938;42.658;23.248;2024-01-15T05:07:55;93201.66;;;-3.09;73.11
84714;BME280;74938;42.658;23.248;2024-01-15T05:10:21;93188.44;;;-3.40;74.04
84714;BME280;74938;42.658;23.248;2024-01-15T05:12:46;93201.88;;;-3.59;74.90
84714;BME280;74938;42.658;23.248;2024-01-15T05:15:11;93192.03;;;-3.62;74.96
84714;BME280;74938;42.658;23.248;2024-01-15T05:17:37;93203.09;;;-3.73;75.28
84714;BME280;74938;42.658;23.248;2024-01-15T05:20:02;93211.75;;;-3.66;75.00
84714;BME280;74938;42.658;23.248;2024-01-15T05:22:28;93219.44;;;-3.87;76.30
84714;BME280;74938;42.658;23.248;2024-01-15T05:24:53;93220.91;;;-3.84;75.25
84714;BME280;74938;42.658;23.248;2024-01-15T05:27:19;93220.47;;;-4.08;77.35
84714;BME280;74938;42.658;23.248;2024-01-15T05:29:44;93217.66;;;-4.15;77.32
84714;BME280;74938;42.658;23.248;2024-01-15T05:32:10;93213.59;;;-3.77;76.30
84714;BME280;74938;42.658;23.248;2024-01-15T05:34:35;93210.56;;;-3.81;76.54
84714;BME280;74938;42.658;23.248;2024-01-15T05:37:00;93207.75;;;-3.68;75.18
84714;BME280;74938;42.658;23.248;2024-01-15T05:39:26;93201.78;;;-3.87;75.82
84714;BME280;74938;42.658;23.248;2024-01-15T05:41:51;93184.09;;;-4.06;76.25
84714;BME280;74938;42.658;23.248;2024-01-15T05:44:17;93194.97;;;-3.96;76.57
84714;BME280;74938;42.658;23.248;2024-01-15T05:46:42;93189.44;;;-3.99;76.32
84714;BME280;74938;42.658;23.248;2024-01-15T05:49:08;93193.94;;;-3.83;76.46
84714;BME280;74938;42.658;23.248;2024-01-15T05:51:33;93191.00;;;-3.60;75.31
84714;BME280;74938;42.658;23.248;2024-01-15T05:53:59;93188.09;;;-4.03;76.53
84714;BME280;74938;42.658;23.248;2024-01-15T05:56:24;93192.72;;;-3.60;75.02
84714;BME280;74938;42.658;23.248;2024-01-15T05:58:49;93185.38;;;-3.44;74.15
84714;BME280;74938;42.658;23.248;2024-01-15T06:01:15;93186.47;;;-3.56;75.02
84714;BME280;74938;42.658;23.248;2024-01-15T06:03:40;93167.34;;;-3.97;75.45
84714;BME280;74938;42.658;23.248;2024-01-15T06:06:06;93177.34;;;-4.05;77.14
84714;BME280;74938;42.658;23.248;2024-01-15T06:08:31;93180.78;;;-3.87;76.42
84714;BME280;74938;42.658;23.248;2024-01-15T06:10:56;93180.38;;;-3.92;76.00
84714;BME280;74938;42.658;23.248;2024-01-15T06:13:22;93189.09;;;-3.38;74.55
84714;BME280;74938;42.658;23.248;2024-01-15T06:15:47;93198.66;;;-3.32;73.81
84714;BME280;74938;42.658;23.248;2024-01-15T06:18:13;93188.22;;;-3.10;72.52
84714;BME280;74938;42.658;23.248;2024-01-15T06:20:38;93188.34;;;-3.02;72.03
84714;BME280;74938;42.658;23.248;2024-01-15T06:23:04;93187.75;;;-2.86;72.50
84714;BME280;74938;42.658;23.248;2024-01-15T06:25:29;93179.44;;;-3.06;72.03
84714;BME280;74938;42.658;23.248;2024-01-15T06:27:55;93181.06;;;-3.14;73.28
84714;BME280;74938;42.658;23.248;2024-01-15T06:30:20;93179.72;;;-3.09;73.90
84714;BME280;74938;42.658;23.248;2024-01-15T06:32:45;93174.22;;;-2.67;72.39
84714;BME280;74938;42.658;23.248;2024-01-15T06:35:11;93188.69;;;-2.87;72.67
84714;BME280;74938;42.658;23.248;2024-01-15T06:37:37;93189.06;;;-3.19;75.08
84714;BME280;74938;42.658;23.248;2024-01-15T06:40:03;93182.16;;;-3.27;74.63
84714;BME280;74938;42.658;23.248;2024-01-15T06:42:28;93185.28;;;-3.52;75.93
84714;BME280;74938;42.658;23.248;2024-01-15T06:44:53;93198.31;;;-3.00;74.67
84714;BME280;74938;42.658;23.248;2024-01-15T06:47:19;93193.34;;;-2.55;72.85
84714;BME280;74938;42.658;23.248;2024-01-15T06:49:44;93197.19;;;-2.78;72.45
84714;BME280;74938;42.658;23.248;2024-01-15T06:52:10;93200.47;;;-2.68;73.09
84714;BME280;74938;42.658;23.248;2024-01-15T06:54:37;93193.69;;;-2.23;71.32
84714;BME280;74938;42.658;23.248;2024-01-15T06:57:02;93188.47;;;-2.21;71.86
84714;BME280;74938;42.658;23.248;2024-01-15T06:59:28;93193.75;;;-2.32;71.59
84714;BME280;74938;42.658;23.248;2024-01-15T07:01:53;93210.06;;;-1.99;70.39
84714;BME280;74938;42.658;23.248;2024-01-15T07:04:20;93202.47;;;-1.99;71.35
84714;BME280;74938;42.658;23.248;2024-01-15T07:06:45;93212.22;;;-2.04;71.10
84714;BME280;74938;42.658;23.248;2024-01-15T07:09:10;93213.41;;;-1.81;71.03
84714;BME280;74938;42.658;23.248;2024-01-15T07:11:36;93218.50;;;-1.55;70.15
84714;BME280;74938;42.658;23.248;2024-01-15T07:14:01;93209.28;;;-1.64;69.43
84714;BME280;74938;42.658;23.248;2024-01-15T07:16:27;93217.09;;;-1.58;70.06
84714;BME280;74938;42.658;23.248;2024-01-15T07:18:52;93209.59;;;-1.24;68.89
84714;BME280;74938;42.658;23.248;2024-01-15T07:21:17;93190.94;;;-1.15;66.34
84714;BME280;74938;42.658;23.248;2024-01-15T07:23:43;93191.38;;;-1.19;67.30
84714;BME280;74938;42.658;23.248;2024-01-15T07:26:08;93196.50;;;-1.37;68.84
84714;BME280;74938;42.658;23.248;2024-01-15T07:28:34;93191.81;;;-1.06;68.80
84714;BME280;74938;42.658;23.248;2024-01-15T07:30:59;93182.22;;;-1.38;67.66
84714;BME280;74938;42.658;23.248;2024-01-15T07:33:26;93180.97;;;-1.60;69.04
84714;BME280;74938;42.658;23.248;2024-01-15T07:35:52;93185.06;;;-1.41;67.96
84714;BME280;74938;42.658;23.248;2024-01-15T07:38:17;93196.69;;;-1.56;70.34
84714;BME280;74938;42.658;23.248;2024-01-15T07:40:42;93180.91;;;-1.68;68.91
84714;BME280;74938;42.658;23.248;2024-01-15T07:43:08;93189.72;;;-1.54;69.55
84714;BME280;74938;42.658;23.248;2024-01-15T07:45:33;93198.66;;;-1.24;69.60
84714;BME280;74938;42.658;23.248;2024-01-15T07:47:58;93198.84;;;-0.92;67.11
84714;BME280;74938;42.658;23.248;2024-01-15T07:50:24;93190.06;;;-1.06;66.50
84714;BME280;74938;42.658;23.248;2024-01-15T07:52:49;93178.41;;;-1.16;66.79
84714;BME280;74938;42.658;23.248;2024-01-15T07:55:15;93191.84;;;-0.98;67.56
84714;BME280;74938;42.658;23.248;2024-01-15T07:57:40;93164.84;;;-1.07;66.88
84714;BME280;74938;42.658;23.248;2024-01-15T08:00:06;93153.84;;;-0.90;67.09
84714;BME280;74938;42.658;23.248;2024-01-15T08:02:32;93163.50;;;-0.93;67.80
84714;BME280;74938;42.658;23.248;2024-01-15T08:04:58;93165.16;;;-0.76;67.11
84714;BME280;74938;42.658;23.248;2024-01-15T08:07:24;93166.06;;;-0.85;67.26
84714;BME280;74938;42.658;23.248;2024-01-15T08:09:51;93189.44;;;-0.74;66.99
84714;BME280;74938;42.658;23.248;2024-01-15T08:12:16;93185.31;;;-0.75;68.10
84714;BME280;74938;42.658;23.248;2024-01-15T08:14:42;93182.78;;;-0.75;68.25
84714;BME280;74938;42.658;23.248;2024-01-15T08:17:07;93194.94;;;-0.44;67.14
84714;BME280;74938;42.658;23.248;2024-01-15T08:19:33;93203.66;;;0.04;65.67
84714;BME280;74938;42.658;23.248;2024-01-15T08:21:58;93195.88;;;-0.53;66.34
84714;BME280;74938;42.658;23.248;2024-01-15T08:24:23;93181.84;;;-0.74;67.11
84714;BME280;74938;42.658;23.248;2024-01-15T08:26:49;93199.38;;;-0.54;66.03
84714;BME280;74938;42.658;23.248;2024-01-15T08:29:14;93188.53;;;-0.22;64.45
84714;BME280;74938;42.658;23.248;2024-01-15T08:31:40;93194.50;;;0.59;62.51
84714;BME280;74938;42.658;23.248;2024-01-15T08:34:05;93191.75;;;1.10;61.40
84714;BME280;74938;42.658;23.248;2024-01-15T08:36:31;93196.69;;;1.11;61.88
84714;BME280;74938;42.658;23.248;2024-01-15T08:38:56;93190.16;;;1.64;59.26
84714;BME280;74938;42.658;23.248;2024-01-15T08:41:21;93183.88;;;1.44;59.06
84714;BME280;74938;42.658;23.248;2024-01-15T08:43:47;93185.16;;;1.39;58.55
84714;BME280;74938;42.658;23.248;2024-01-15T08:46:13;93187.22;;;1.44;59.37
84714;BME280;74938;42.658;23.248;2024-01-15T08:48:38;93182.72;;;0.91;61.11
84714;BME280;74938;42.658;23.248;2024-01-15T08:51:05;93174.22;;;1.23;59.81
84714;BME280;74938;42.658;23.248;2024-01-15T08:53:30;93169.38;;;0.97;59.79
84714;BME280;74938;42.658;23.248;2024-01-15T08:55:55;93178.09;;;0.94;61.06
84714;BME280;74938;42.658;23.248;2024-01-15T08:58:23;93159.41;;;0.47;61.65
84714;BME280;74938;42.658;23.248;2024-01-15T09:00:48;93149.88;;;0.65;61.94
84714;BME280;74938;42.658;23.248;2024-01-15T09:03:14;93157.94;;;0.77;61.96
84714;BME280;74938;42.658;23.248;2024-01-15T09:05:39;93147.75;;;1.01;61.44
84714;BME280;74938;42.658;23.248;2024-01-15T09:08:06;93128.97;;;0.94;61.23
84714;BME280;74938;42.658;23.248;2024-01-15T09:10:31;93118.06;;;1.24;60.20
84714;BME280;74938;42.658;23.248;2024-01-15T09:12:56;93106.22;;;1.48;59.98
84714;BME280;74938;42.658;23.248;2024-01-15T09:15:22;93105.03;;;1.89;58.18
84714;BME280;74938;42.658;23.248;2024-01-15T09:17:48;93108.66;;;2.18;58.11
84714;BME280;74938;42.658;23.248;2024-01-15T09:20:15;93107.25;;;2.15;57.35
84714;BME280;74938;42.658;23.248;2024-01-15T09:22:40;93095.09;;;1.40;59.93
84714;BME280;74938;42.658;23.248;2024-01-15T09:25:07;93096.09;;;1.62;59.81
84714;BME280;74938;42.658;23.248;2024-01-15T09:27:34;93093.53;;;1.93;58.79
84714;BME280;74938;42.658;23.248;2024-01-15T09:30:00;93085.59;;;1.65;60.29
84714;BME280;74938;42.658;23.248;2024-01-15T09:32:25;93087.22;;;1.58;59.75
84714;BME280;74938;42.658;23.248;2024-01-15T09:34:50;93080.00;;;1.39;60.23
84714;BME280;74938;42.658;23.248;2024-01-15T09:37:16;93075.13;;;1.83;60.07
84714;BME280;74938;42.658;23.248;2024-01-15T09:39:41;93067.25;;;2.16;57.14
84714;BME280;74938;42.658;23.248;2024-01-15T09:42:07;93068.63;;;2.03;57.46
84714;BME280;74938;42.658;23.248;2024-01-15T09:44:33;93053.66;;;1.78;58.41
84714;BME280;74938;42.658;23.248;2024-01-15T09:46:59;93050.97;;;1.79;57.98
84714;BME280;74938;42.658;23.248;2024-01-15T09:49:25;93044.16;;;1.94;57.96
84714;BME280;74938;42.658;23.248;2024-01-15T09:51:51;93028.31;;;1.84;56.46
84714;BME280;74938;42.658;23.248;2024-01-15T09:54:17;93025.88;;;2.28;57.02
84714;BME280;74938;42.658;23.248;2024-01-15T09:56:45;93026.31;;;2.32;55.97
84714;BME280;74938;42.658;23.248;2024-01-15T09:59:15;93017.19;;;2.37;54.79
84714;BME280;74938;42.658;23.248;2024-01-15T10:01:41;93028.09;;;2.46;55.35
84714;BME280;74938;42.658;23.248;2024-01-15T10:04:08;93031.28;;;2.48;54.58
84714;BME280;74938;42.658;23.248;2024-01-15T10:06:34;93028.28;;;3.03;53.48
84714;BME280;74938;42.658;23.248;2024-01-15T10:09:00;93030.41;;;2.85;52.00
84714;BME280;74938;42.658;23.248;2024-01-15T10:11:26;93018.19;;;2.66;52.58
84714;BME280;74938;42.658;23.248;2024-01-15T10:13:52;93004.38;;;2.75;52.38
84714;BME280;74938;42.658;23.248;2024-01-15T10:16:21;93000.31;;;3.10;53.08
84714;BME280;74938;42.658;23.248;2024-01-15T10:18:47;92996.84;;;3.54;50.26
84714;BME280;74938;42.658;23.248;2024-01-15T10:21:13;92978.94;;;3.32;50.54
84714;BME280;74938;42.658;23.248;2024-01-15T10:23:39;92997.94;;;3.44;51.43
84714;BME280;74938;42.658;23.248;2024-01-15T10:26:05;92990.59;;;3.20;53.12
84714;BME280;74938;42.658;23.248;2024-01-15T10:28:31;92976.19;;;3.34;52.20
84714;BME280;74938;42.658;23.248;2024-01-15T10:30:58;92964.53;;;2.74;51.60
84714;BME280;74938;42.658;23.248;2024-01-15T10:33:24;92984.16;;;3.24;51.28
84714;BME280;74938;42.658;23.248;2024-01-15T10:35:53;92977.50;;;3.08;52.87
84714;BME280;74938;42.658;23.248;2024-01-15T10:38:21;92977.53;;;2.94;52.40
84714;BME280;74938;42.658;23.248;2024-01-15T10:40:54;92989.66;;;3.42;52.62
84714;BME280;74938;42.658;23.248;2024-01-15T10:43:20;92978.31;;;3.09;52.99
84714;BME280;74938;42.658;23.248;2024-01-15T10:45:46;92983.69;;;3.35;52.17
84714;BME280;74938;42.658;23.248;2024-01-15T10:48:12;92961.72;;;3.20;53.35
84714;BME280;74938;42.658;23.248;2024-01-15T10:50:38;92964.97;;;3.28;53.69
84714;BME280;74938;42.658;23.248;2024-01-15T10:53:04;92957.66;;;3.46;51.28
84714;BME280;74938;42.658;23.248;2024-01-15T10:55:31;92954.03;;;3.77;52.67
84714;BME280;74938;42.658;23.248;2024-01-15T10:57:57;92966.53;;;3.93;50.57
84714;BME280;74938;42.658;23.248;2024-01-15T11:00:23;92955.22;;;3.81;50.70
84714;BME280;74938;42.658;23.248;2024-01-15T11:02:51;92944.13;;;3.46;51.10
84714;BME280;74938;42.658;23.248;2024-01-15T11:05:16;92936.22;;;3.62;51.38
84714;BME280;74938;42.658;23.248;2024-01-15T11:07:43;92940.31;;;3.84;53.60
84714;BME280;74938;42.658;23.248;2024-01-15T11:10:48;92947.06;;;3.92;49.87
84714;BME280;74938;42.658;23.248;2024-01-15T11:13:23;92943.38;;;4.01;50.96
84714;BME280;74938;42.658;23.248;2024-01-15T11:16:06;92932.97;;;3.75;51.94
84714;BME280;74938;42.658;23.248;2024-01-15T11:19:00;92934.66;;;3.89;50.29
84714;BME280;74938;42.658;23.248;2024-01-15T11:21:20;92929.09;;;3.79;50.46
84714;BME280;74938;42.658;23.248;2024-01-15T11:29:10;92906.41;;;3.97;50.25
84714;BME280;74938;42.658;23.248;2024-01-15T11:34:21;92931.06;;;4.39;49.79
84714;BME280;74938;42.658;23.248;2024-01-15T11:37:06;92913.66;;;3.94;51.32
84714;BME280;74938;42.658;23.248;2024-01-15T11:42:01;92933.41;;;4.06;50.61
84714;BME280;74938;42.658;23.248;2024-01-15T11:44:28;92924.34;;;4.04;51.03
84714;BME280;74938;42.658;23.248;2024-01-15T11:47:00;92916.31;;;4.41;49.75
84714;BME280;74938;42.658;23.248;2024-01-15T11:52:34;92909.56;;;3.99;51.43
84714;BME280;74938;42.658;23.248;2024-01-15T11:55:14;92907.88;;;3.85;51.49
84714;BME280;74938;42.658;23.248;2024-01-15T11:57:54;92903.56;;;3.85;51.24
84714;BME280;74938;42.658;23.248;2024-01-15T12:00:22;92899.75;;;4.03;51.90
84714;BME280;74938;42.658;23.248;2024-01-15T12:02:48;92904.50;;;4.06;52.07
84714;BME280;74938;42.658;23.248;2024-01-15T12:05:15;92880.81;;;3.91;52.52
84714;BME280;74938;42.658;23.248;2024-01-15T12:07:42;92879.72;;;4.06;50.80
84714;BME280;74938;42.658;23.248;2024-01-15T12:10:09;92883.50;;;4.10;53.07
84714;BME280;74938;42.658;23.248;2024-01-15T12:13:00;92878.88;;;3.99;51.84
84714;BME280;74938;42.658;23.248;2024-01-15T12:15:30;92881.53;;;4.47;52.56
84714;BME280;74938;42.658;23.248;2024-01-15T12:17:57;92881.34;;;4.55;49.74
84714;BME280;74938;42.658;23.248;2024-01-15T12:20:27;92875.25;;;4.56;51.33
84714;BME280;74938;42.658;23.248;2024-01-15T12:22:53;92878.97;;;4.53;50.45
84714;BME280;74938;42.658;23.248;2024-01-15T12:25:18;92865.66;;;4.24;52.92
84714;BME280;74938;42.658;23.248;2024-01-15T12:27:45;92865.22;;;4.13;52.17
84714;BME280;74938;42.658;23.248;2024-01-15T12:30:11;92854.69;;;4.36;53.19
84714;BME280;74938;42.658;23.248;2024-01-15T12:32:37;92858.91;;;4.09;51.99
84714;BME280;74938;42.658;23.248;2024-01-15T12:35:03;92849.44;;;4.44;52.35
84714;BME280;74938;42.658;23.248;2024-01-15T12:37:29;92852.31;;;4.35;52.91
84714;BME280;74938;42.658;23.248;2024-01-15T12:39:55;92856.13;;;4.45;50.31
84714;BME280;74938;42.658;23.248;2024-01-15T12:42:21;92846.13;;;4.16;52.07
84714;BME280;74938;42.658;23.248;2024-01-15T12:44:47;92842.47;;;4.25;51.05
84714;BME280;74938;42.658;23.248;2024-01-15T12:47:12;92842.56;;;4.45;52.76
84714;BME280;74938;42.658;23.248;2024-01-15T12:49:39;92838.88;;;4.19;50.82
84714;BME280;74938;42.658;23.248;2024-01-15T12:52:10;92851.28;;;4.23;50.90
84714;BME280;74938;42.658;23.248;2024-01-15T12:54:35;92832.69;;;4.42;51.37
84714;BME280;74938;42.658;23.248;2024-01-15T12:57:01;92835.91;;;4.09;53.49
84714;BME280;74938;42.658;23.248;2024-01-15T12:59:26;92830.91;;;4.01;51.79
84714;BME280;74938;42.658;23.248;2024-01-15T13:01:52;92834.00;;;4.25;52.95